Oenaville, Texas
Current Conditions -  °F | °C
As of 11:55 AM on Saturday 20 Dec 2014 (Local Time) from KTPL Reporting Station
Overcast Overcast  
Wind Chill: 52°   Ceiling: 1500
Heat Index: 52°   Visibility: 10mi
Dew Point: 43°   Wind: 8mph
Humidity: 71%   Direction: 350°N
Pressure: 30.23"   Gusts: NA
Location:  31.0795°N, 97.3287°W
Report Text: KTPL 201755Z AUTO 35007KT 10SM BKN015 OVC031 11/06 A3023 RMK AO1 10110 20080 52003
Loading
Personal Weather Stations






























Interactive Weather Map New forecast layout! Learn more

10-Day Weather Forecast

Advertisements
Track Severe Weather on mobile